Roaring Spring, Pennsylvania
Current Conditions -  °F | °C
As of 8:53 AM on Monday 20 Oct 2014 (Local Time) from KAOO Reporting Station
Clear Clear  
Wind Chill:   Ceiling: Unl
Heat Index:   Visibility: 10mi
Dew Point:   Wind: 7mph
Humidity: 71%   Direction: 190°S
Pressure: 30.05"   Gusts: NA
Location:  40.34°N, 78.39°W
Report Text: KAOO 201253Z AUTO 19006KT 10SM CLR 08/03 A3005 RMK AO2 SLP184 T00780028
Loading
Personal Weather Stations






























Interactive Weather Map
Tropical Storm Tracking
New forecast layout! Learn more

10-Day Weather Forecast

Advertisements
Track Severe Weather on mobile